Terminal Aerodrome Forecast
Issued by NWS Shreveport, LA

Home | Current Version | Previous Version | Text Only | Print | Product List | Glossary On
Versions: 1 2 3 4 5 6 7 8 9 10 11 12 13 14 15
000
FTUS44 KSHV 020500
TAFTXK
TAF
KTXK 020540Z 0206/0306 02006KT P6SM OVC004
     FM020900 03006KT 4SM -RA BR OVC004
     FM021800 08006KT 5SM BR OVC007
     FM030000 07003KT 4SM BR OVC003=

USA.gov is the U.S. government's official web portal to all federal, state and local government web resources and services.